sensor_id;sensor_type;location;lat;lon;timestamp;P1;durP1;ratioP1;P2;durP2;ratioP2
5085;SDS011;4715;51.660;7.082;2022-10-16T00:00:14;2.53;;;2.33;;
5085;SDS011;4715;51.660;7.082;2022-10-16T00:02:37;2.53;;;2.33;;
5085;SDS011;4715;51.660;7.082;2022-10-16T00:05:02;3.23;;;2.33;;
5085;SDS011;4715;51.660;7.082;2022-10-16T00:07:24;3.73;;;2.20;;
5085;SDS011;4715;51.660;7.082;2022-10-16T00:09:47;2.53;;;2.33;;
5085;SDS011;4715;51.660;7.082;2022-10-16T00:12:11;2.70;;;2.20;;
5085;SDS011;4715;51.660;7.082;2022-10-16T00:14:34;3.57;;;2.00;;
5085;SDS011;4715;51.660;7.082;2022-10-16T00:16:59;2.53;;;2.33;;
5085;SDS011;4715;51.660;7.082;2022-10-16T00:19:21;2.33;;;2.10;;
5085;SDS011;4715;51.660;7.082;2022-10-16T00:21:43;3.10;;;2.60;;
5085;SDS011;4715;51.660;7.082;2022-10-16T00:24:08;2.10;;;1.90;;
5085;SDS011;4715;51.660;7.082;2022-10-16T00:26:32;1.90;;;1.80;;
5085;SDS011;4715;51.660;7.082;2022-10-16T00:28:57;1.80;;;1.70;;
5085;SDS011;4715;51.660;7.082;2022-10-16T00:31:20;1.70;;;1.60;;
5085;SDS011;4715;51.660;7.082;2022-10-16T00:33:44;2.00;;;1.90;;
5085;SDS011;4715;51.660;7.082;2022-10-16T00:36:07;2.40;;;2.17;;
5085;SDS011;4715;51.660;7.082;2022-10-16T00:38:31;2.57;;;1.97;;
5085;SDS011;4715;51.660;7.082;2022-10-16T00:40:54;2.47;;;2.27;;
5085;SDS011;4715;51.660;7.082;2022-10-16T00:43:33;2.30;;;2.10;;
5085;SDS011;4715;51.660;7.082;2022-10-16T00:45:58;3.57;;;2.43;;
5085;SDS011;4715;51.660;7.082;2022-10-16T00:48:23;4.00;;;1.90;;
5085;SDS011;4715;51.660;7.082;2022-10-16T00:50:47;2.13;;;2.03;;
5085;SDS011;4715;51.660;7.082;2022-10-16T00:53:09;2.50;;;2.30;;
5085;SDS011;4715;51.660;7.082;2022-10-16T00:55:33;2.17;;;1.97;;
5085;SDS011;4715;51.660;7.082;2022-10-16T00:57:57;2.70;;;2.33;;
5085;SDS011;4715;51.660;7.082;2022-10-16T01:00:23;2.90;;;2.10;;
5085;SDS011;4715;51.660;7.082;2022-10-16T01:02:51;2.17;;;1.97;;
5085;SDS011;4715;51.660;7.082;2022-10-16T01:05:14;2.40;;;2.30;;
5085;SDS011;4715;51.660;7.082;2022-10-16T01:07:40;5.60;;;2.80;;
5085;SDS011;4715;51.660;7.082;2022-10-16T01:10:14;2.67;;;2.43;;
5085;SDS011;4715;51.660;7.082;2022-10-16T01:12:45;2.60;;;2.40;;
5085;SDS011;4715;51.660;7.082;2022-10-16T01:15:12;2.27;;;2.13;;
5085;SDS011;4715;51.660;7.082;2022-10-16T01:17:41;2.70;;;2.50;;
5085;SDS011;4715;51.660;7.082;2022-10-16T01:20:08;2.40;;;2.17;;
5085;SDS011;4715;51.660;7.082;2022-10-16T01:22:39;6.20;;;2.37;;
5085;SDS011;4715;51.660;7.082;2022-10-16T01:25:16;4.30;;;2.40;;
5085;SDS011;4715;51.660;7.082;2022-10-16T01:27:48;2.30;;;2.20;;
5085;SDS011;4715;51.660;7.082;2022-10-16T01:30:12;6.17;;;2.13;;
5085;SDS011;4715;51.660;7.082;2022-10-16T01:32:38;2.80;;;2.60;;
5085;SDS011;4715;51.660;7.082;2022-10-16T01:35:03;2.50;;;2.30;;
5085;SDS011;4715;51.660;7.082;2022-10-16T01:37:32;2.67;;;2.53;;
5085;SDS011;4715;51.660;7.082;2022-10-16T01:39:59;2.30;;;2.17;;
5085;SDS011;4715;51.660;7.082;2022-10-16T01:42:30;1.80;;;1.70;;
5085;SDS011;4715;51.660;7.082;2022-10-16T01:44:57;2.13;;;2.00;;
5085;SDS011;4715;51.660;7.082;2022-10-16T01:47:22;3.07;;;2.87;;
5085;SDS011;4715;51.660;7.082;2022-10-16T01:49:46;2.17;;;1.97;;
5085;SDS011;4715;51.660;7.082;2022-10-16T01:52:10;2.23;;;2.13;;
5085;SDS011;4715;51.660;7.082;2022-10-16T01:54:37;2.20;;;1.97;;
5085;SDS011;4715;51.660;7.082;2022-10-16T01:57:03;2.20;;;2.00;;
5085;SDS011;4715;51.660;7.082;2022-10-16T01:59:28;2.33;;;2.13;;
5085;SDS011;4715;51.660;7.082;2022-10-16T02:01:58;1.77;;;1.67;;
5085;SDS011;4715;51.660;7.082;2022-10-16T02:04:23;3.13;;;1.73;;
5085;SDS011;4715;51.660;7.082;2022-10-16T02:06:49;5.17;;;1.97;;
5085;SDS011;4715;51.660;7.082;2022-10-16T02:09:11;2.07;;;1.97;;
5085;SDS011;4715;51.660;7.082;2022-10-16T02:11:35;2.40;;;2.30;;
5085;SDS011;4715;51.660;7.082;2022-10-16T02:13:58;2.83;;;2.63;;
5085;SDS011;4715;51.660;7.082;2022-10-16T02:16:32;2.27;;;1.83;;
5085;SDS011;4715;51.660;7.082;2022-10-16T02:18:58;2.80;;;2.00;;
5085;SDS011;4715;51.660;7.082;2022-10-16T02:21:22;2.87;;;2.50;;
5085;SDS011;4715;51.660;7.082;2022-10-16T02:23:51;2.07;;;1.93;;
5085;SDS011;4715;51.660;7.082;2022-10-16T02:26:20;3.70;;;1.67;;
5085;SDS011;4715;51.660;7.082;2022-10-16T02:28:51;1.80;;;1.70;;
5085;SDS011;4715;51.660;7.082;2022-10-16T02:31:18;1.90;;;1.80;;
5085;SDS011;4715;51.660;7.082;2022-10-16T02:33:45;1.83;;;1.70;;
5085;SDS011;4715;51.660;7.082;2022-10-16T02:36:08;2.47;;;1.87;;
5085;SDS011;4715;51.660;7.082;2022-10-16T02:38:32;1.80;;;1.70;;
5085;SDS011;4715;51.660;7.082;2022-10-16T02:40:55;2.00;;;1.90;;
5085;SDS011;4715;51.660;7.082;2022-10-16T02:43:18;1.90;;;1.80;;
5085;SDS011;4715;51.660;7.082;2022-10-16T02:45:40;2.10;;;2.00;;
5085;SDS011;4715;51.660;7.082;2022-10-16T02:48:02;1.83;;;1.73;;
5085;SDS011;4715;51.660;7.082;2022-10-16T02:50:24;2.33;;;1.93;;
5085;SDS011;4715;51.660;7.082;2022-10-16T02:52:51;2.70;;;1.87;;
5085;SDS011;4715;51.660;7.082;2022-10-16T02:55:14;1.50;;;1.40;;
5085;SDS011;4715;51.660;7.082;2022-10-16T02:57:36;2.20;;;1.93;;
5085;SDS011;4715;51.660;7.082;2022-10-16T03:00:00;1.93;;;1.80;;
5085;SDS011;4715;51.660;7.082;2022-10-16T03:02:22;1.90;;;1.80;;
5085;SDS011;4715;51.660;7.082;2022-10-16T03:04:45;2.57;;;2.17;;
5085;SDS011;4715;51.660;7.082;2022-10-16T03:07:09;3.23;;;1.80;;
5085;SDS011;4715;51.660;7.082;2022-10-16T03:09:33;2.70;;;1.90;;
5085;SDS011;4715;51.660;7.082;2022-10-16T03:11:55;1.50;;;1.40;;
5085;SDS011;4715;51.660;7.082;2022-10-16T03:14:18;1.87;;;1.77;;
5085;SDS011;4715;51.660;7.082;2022-10-16T03:16:40;1.93;;;1.60;;
5085;SDS011;4715;51.660;7.082;2022-10-16T03:19:02;1.50;;;1.40;;
5085;SDS011;4715;51.660;7.082;2022-10-16T03:21:25;4.47;;;2.60;;
5085;SDS011;4715;51.660;7.082;2022-10-16T03:23:47;2.07;;;1.33;;
5085;SDS011;4715;51.660;7.082;2022-10-16T03:26:11;2.60;;;1.90;;
5085;SDS011;4715;51.660;7.082;2022-10-16T03:28:36;1.63;;;1.53;;
5085;SDS011;4715;51.660;7.082;2022-10-16T03:30:59;1.83;;;1.50;;
5085;SDS011;4715;51.660;7.082;2022-10-16T03:33:20;1.53;;;1.30;;
5085;SDS011;4715;51.660;7.082;2022-10-16T03:35:43;2.20;;;1.40;;
5085;SDS011;4715;51.660;7.082;2022-10-16T03:38:13;3.10;;;1.67;;
5085;SDS011;4715;51.660;7.082;2022-10-16T03:40:35;3.13;;;1.40;;
5085;SDS011;4715;51.660;7.082;2022-10-16T03:43:01;2.30;;;1.77;;
5085;SDS011;4715;51.660;7.082;2022-10-16T03:45:28;2.13;;;1.50;;
5085;SDS011;4715;51.660;7.082;2022-10-16T03:47:50;1.63;;;1.53;;
5085;SDS011;4715;51.660;7.082;2022-10-16T03:50:12;1.97;;;1.40;;
5085;SDS011;4715;51.660;7.082;2022-10-16T03:52:34;1.50;;;1.40;;
5085;SDS011;4715;51.660;7.082;2022-10-16T03:54:56;1.93;;;1.60;;
5085;SDS011;4715;51.660;7.082;2022-10-16T03:57:18;1.40;;;1.30;;
5085;SDS011;4715;51.660;7.082;2022-10-16T03:59:43;1.67;;;1.57;;
5085;SDS011;4715;51.660;7.082;2022-10-16T04:02:05;2.03;;;1.83;;
5085;SDS011;4715;51.660;7.082;2022-10-16T04:04:28;2.63;;;1.90;;
5085;SDS011;4715;51.660;7.082;2022-10-16T04:06:50;1.63;;;1.33;;
5085;SDS011;4715;51.660;7.082;2022-10-16T04:09:20;1.50;;;1.40;;
5085;SDS011;4715;51.660;7.082;2022-10-16T04:11:45;2.37;;;1.53;;
5085;SDS011;4715;51.660;7.082;2022-10-16T04:14:07;1.43;;;1.33;;
5085;SDS011;4715;51.660;7.082;2022-10-16T04:16:32;2.50;;;1.50;;
5085;SDS011;4715;51.660;7.082;2022-10-16T04:18:54;1.73;;;1.63;;
5085;SDS011;4715;51.660;7.082;2022-10-16T04:21:16;2.10;;;1.90;;
5085;SDS011;4715;51.660;7.082;2022-10-16T04:23:38;3.53;;;1.60;;
5085;SDS011;4715;51.660;7.082;2022-10-16T04:26:01;3.33;;;1.73;;
5085;SDS011;4715;51.660;7.082;2022-10-16T04:28:24;1.50;;;1.40;;
5085;SDS011;4715;51.660;7.082;2022-10-16T04:30:45;1.53;;;1.43;;
5085;SDS011;4715;51.660;7.082;2022-10-16T04:33:09;1.97;;;1.87;;
5085;SDS011;4715;51.660;7.082;2022-10-16T04:35:32;1.40;;;1.30;;
5085;SDS011;4715;51.660;7.082;2022-10-16T04:37:56;1.63;;;1.53;;
5085;SDS011;4715;51.660;7.082;2022-10-16T04:40:20;1.43;;;1.40;;
5085;SDS011;4715;51.660;7.082;2022-10-16T04:42:42;1.53;;;1.43;;
5085;SDS011;4715;51.660;7.082;2022-10-16T04:45:05;1.60;;;1.50;;
5085;SDS011;4715;51.660;7.082;2022-10-16T04:47:29;1.53;;;1.43;;
5085;SDS011;4715;51.660;7.082;2022-10-16T04:49:53;2.17;;;1.90;;
5085;SDS011;4715;51.660;7.082;2022-10-16T04:52:15;1.60;;;1.50;;
5085;SDS011;4715;51.660;7.082;2022-10-16T04:54:37;3.10;;;1.87;;
5085;SDS011;4715;51.660;7.082;2022-10-16T04:56:59;2.90;;;1.60;;
5085;SDS011;4715;51.660;7.082;2022-10-16T04:59:21;2.53;;;1.40;;
5085;SDS011;4715;51.660;7.082;2022-10-16T05:01:43;3.63;;;1.70;;
5085;SDS011;4715;51.660;7.082;2022-10-16T05:04:05;2.27;;;1.40;;
5085;SDS011;4715;51.660;7.082;2022-10-16T05:06:29;1.50;;;1.40;;
5085;SDS011;4715;51.660;7.082;2022-10-16T05:08:51;1.33;;;1.23;;
5085;SDS011;4715;51.660;7.082;2022-10-16T05:11:13;1.97;;;1.70;;
5085;SDS011;4715;51.660;7.082;2022-10-16T05:13:34;5.27;;;2.10;;
5085;SDS011;4715;51.660;7.082;2022-10-16T05:15:56;2.03;;;1.43;;
5085;SDS011;4715;51.660;7.082;2022-10-16T05:18:18;2.73;;;1.70;;
5085;SDS011;4715;51.660;7.082;2022-10-16T05:20:40;1.63;;;1.53;;
5085;SDS011;4715;51.660;7.082;2022-10-16T05:23:03;2.40;;;1.40;;
5085;SDS011;4715;51.660;7.082;2022-10-16T05:25:25;1.97;;;1.73;;
5085;SDS011;4715;51.660;7.082;2022-10-16T05:27:47;1.87;;;1.57;;
5085;SDS011;4715;51.660;7.082;2022-10-16T05:30:10;1.83;;;1.63;;
5085;SDS011;4715;51.660;7.082;2022-10-16T05:32:32;2.53;;;1.90;;
5085;SDS011;4715;51.660;7.082;2022-10-16T05:34:54;3.07;;;1.53;;
5085;SDS011;4715;51.660;7.082;2022-10-16T05:37:16;2.10;;;1.57;;
5085;SDS011;4715;51.660;7.082;2022-10-16T05:39:39;1.50;;;1.40;;
5085;SDS011;4715;51.660;7.082;2022-10-16T05:42:01;1.53;;;1.43;;
5085;SDS011;4715;51.660;7.082;2022-10-16T05:44:23;1.80;;;1.70;;
5085;SDS011;4715;51.660;7.082;2022-10-16T05:46:45;4.00;;;1.40;;
5085;SDS011;4715;51.660;7.082;2022-10-16T05:49:08;2.20;;;2.00;;
5085;SDS011;4715;51.660;7.082;2022-10-16T05:51:30;1.47;;;1.37;;
5085;SDS011;4715;51.660;7.082;2022-10-16T05:53:52;1.90;;;1.80;;
5085;SDS011;4715;51.660;7.082;2022-10-16T05:56:15;1.90;;;1.80;;
5085;SDS011;4715;51.660;7.082;2022-10-16T05:58:38;1.50;;;1.40;;
5085;SDS011;4715;51.660;7.082;2022-10-16T06:01:02;1.80;;;1.70;;
5085;SDS011;4715;51.660;7.082;2022-10-16T06:03:25;2.20;;;1.83;;
5085;SDS011;4715;51.660;7.082;2022-10-16T06:05:47;1.77;;;1.67;;
5085;SDS011;4715;51.660;7.082;2022-10-16T06:08:09;3.70;;;1.73;;
5085;SDS011;4715;51.660;7.082;2022-10-16T06:10:31;1.60;;;1.50;;
5085;SDS011;4715;51.660;7.082;2022-10-16T06:12:54;2.20;;;1.63;;
5085;SDS011;4715;51.660;7.082;2022-10-16T06:15:16;1.63;;;1.53;;
5085;SDS011;4715;51.660;7.082;2022-10-16T06:17:38;4.90;;;2.40;;
5085;SDS011;4715;51.660;7.082;2022-10-16T06:20:00;2.73;;;1.80;;
5085;SDS011;4715;51.660;7.082;2022-10-16T06:22:23;1.67;;;1.20;;
5085;SDS011;4715;51.660;7.082;2022-10-16T06:24:45;1.50;;;1.40;;
5085;SDS011;4715;51.660;7.082;2022-10-16T06:27:07;1.70;;;1.60;;
5085;SDS011;4715;51.660;7.082;2022-10-16T06:29:31;1.60;;;1.50;;
5085;SDS011;4715;51.660;7.082;2022-10-16T06:31:53;1.73;;;1.63;;
5085;SDS011;4715;51.660;7.082;2022-10-16T06:34:14;2.00;;;1.90;;
5085;SDS011;4715;51.660;7.082;2022-10-16T06:36:37;2.90;;;1.50;;
5085;SDS011;4715;51.660;7.082;2022-10-16T06:39:01;2.07;;;1.40;;
5085;SDS011;4715;51.660;7.082;2022-10-16T06:41:22;1.97;;;1.60;;
5085;SDS011;4715;51.660;7.082;2022-10-16T06:43:44;3.30;;;1.53;;
5085;SDS011;4715;51.660;7.082;2022-10-16T06:46:09;4.50;;;1.80;;
5085;SDS011;4715;51.660;7.082;2022-10-16T06:48:33;5.60;;;1.43;;
5085;SDS011;4715;51.660;7.082;2022-10-16T06:50:56;1.60;;;1.50;;
5085;SDS011;4715;51.660;7.082;2022-10-16T06:53:21;1.70;;;1.60;;
5085;SDS011;4715;51.660;7.082;2022-10-16T06:55:45;1.70;;;1.60;;
5085;SDS011;4715;51.660;7.082;2022-10-16T06:58:07;1.80;;;1.70;;
5085;SDS011;4715;51.660;7.082;2022-10-16T07:00:28;2.20;;;1.43;;
5085;SDS011;4715;51.660;7.082;2022-10-16T07:02:51;2.30;;;1.90;;
5085;SDS011;4715;51.660;7.082;2022-10-16T07:05:13;1.70;;;1.60;;
5085;SDS011;4715;51.660;7.082;2022-10-16T07:07:36;1.83;;;1.73;;
5085;SDS011;4715;51.660;7.082;2022-10-16T07:09:58;2.60;;;1.80;;
5085;SDS011;4715;51.660;7.082;2022-10-16T07:12:20;2.30;;;2.10;;
5085;SDS011;4715;51.660;7.082;2022-10-16T07:14:42;3.03;;;2.10;;
5085;SDS011;4715;51.660;7.082;2022-10-16T07:17:03;2.40;;;2.00;;
5085;SDS011;4715;51.660;7.082;2022-10-16T07:19:27;2.17;;;1.97;;
5085;SDS011;4715;51.660;7.082;2022-10-16T07:21:49;1.83;;;1.73;;
5085;SDS011;4715;51.660;7.082;2022-10-16T07:24:12;1.80;;;1.70;;
5085;SDS011;4715;51.660;7.082;2022-10-16T07:26:35;1.67;;;1.40;;
5085;SDS011;4715;51.660;7.082;2022-10-16T07:28:59;4.70;;;1.70;;
5085;SDS011;4715;51.660;7.082;2022-10-16T07:31:21;1.70;;;1.60;;
5085;SDS011;4715;51.660;7.082;2022-10-16T07:33:43;7.83;;;2.73;;
5085;SDS011;4715;51.660;7.082;2022-10-16T07:36:09;2.67;;;1.93;;
5085;SDS011;4715;51.660;7.082;2022-10-16T07:38:31;1.73;;;1.63;;
5085;SDS011;4715;51.660;7.082;2022-10-16T07:40:56;2.40;;;1.60;;
5085;SDS011;4715;51.660;7.082;2022-10-16T07:43:19;2.07;;;1.87;;
5085;SDS011;4715;51.660;7.082;2022-10-16T07:45:46;5.97;;;2.63;;
5085;SDS011;4715;51.660;7.082;2022-10-16T07:48:09;2.40;;;1.67;;
5085;SDS011;4715;51.660;7.082;2022-10-16T07:50:31;4.80;;;2.47;;
5085;SDS011;4715;51.660;7.082;2022-10-16T07:52:54;2.63;;;2.10;;
5085;SDS011;4715;51.660;7.082;2022-10-16T07:55:16;2.17;;;1.97;;
5085;SDS011;4715;51.660;7.082;2022-10-16T07:57:38;3.07;;;2.30;;
5085;SDS011;4715;51.660;7.082;2022-10-16T07:59:59;3.00;;;2.00;;
5085;SDS011;4715;51.660;7.082;2022-10-16T08:02:21;2.57;;;1.87;;
5085;SDS011;4715;51.660;7.082;2022-10-16T08:04:43;4.40;;;1.80;;
5085;SDS011;4715;51.660;7.082;2022-10-16T08:07:07;2.00;;;1.90;;
5085;SDS011;4715;51.660;7.082;2022-10-16T08:09:31;2.70;;;2.50;;
5085;SDS011;4715;51.660;7.082;2022-10-16T08:11:53;2.07;;;1.90;;
5085;SDS011;4715;51.660;7.082;2022-10-16T08:14:14;5.90;;;3.07;;
5085;SDS011;4715;51.660;7.082;2022-10-16T08:16:36;2.53;;;2.00;;
5085;SDS011;4715;51.660;7.082;2022-10-16T08:18:58;5.60;;;2.33;;
5085;SDS011;4715;51.660;7.082;2022-10-16T08:21:21;5.40;;;1.90;;
5085;SDS011;4715;51.660;7.082;2022-10-16T08:23:44;3.00;;;1.97;;
5085;SDS011;4715;51.660;7.082;2022-10-16T08:26:07;3.23;;;2.10;;
5085;SDS011;4715;51.660;7.082;2022-10-16T08:28:29;5.97;;;2.57;;
5085;SDS011;4715;51.660;7.082;2022-10-16T08:30:51;2.50;;;2.10;;
5085;SDS011;4715;51.660;7.082;2022-10-16T08:33:13;3.90;;;2.23;;
5085;SDS011;4715;51.660;7.082;2022-10-16T08:35:35;4.20;;;2.30;;
5085;SDS011;4715;51.660;7.082;2022-10-16T08:37:57;2.00;;;1.90;;
5085;SDS011;4715;51.660;7.082;2022-10-16T08:40:19;2.40;;;2.10;;
5085;SDS011;4715;51.660;7.082;2022-10-16T08:42:53;2.97;;;2.07;;
5085;SDS011;4715;51.660;7.082;2022-10-16T08:45:31;2.17;;;1.97;;
5085;SDS011;4715;51.660;7.082;2022-10-16T08:48:00;1.90;;;1.80;;
5085;SDS011;4715;51.660;7.082;2022-10-16T08:50:32;2.00;;;1.83;;
5085;SDS011;4715;51.660;7.082;2022-10-16T08:52:57;2.73;;;2.07;;
5085;SDS011;4715;51.660;7.082;2022-10-16T08:55:25;2.33;;;2.13;;
5085;SDS011;4715;51.660;7.082;2022-10-16T08:57:54;2.33;;;2.13;;
5085;SDS011;4715;51.660;7.082;2022-10-16T09:00:16;3.60;;;1.80;;
5085;SDS011;4715;51.660;7.082;2022-10-16T09:02:40;2.63;;;1.90;;
5085;SDS011;4715;51.660;7.082;2022-10-16T09:05:14;2.30;;;2.10;;
5085;SDS011;4715;51.660;7.082;2022-10-16T09:07:46;2.33;;;2.13;;
5085;SDS011;4715;51.660;7.082;2022-10-16T09:10:21;7.77;;;2.93;;
5085;SDS011;4715;51.660;7.082;2022-10-16T09:12:56;4.17;;;1.80;;
5085;SDS011;4715;51.660;7.082;2022-10-16T09:15:29;5.80;;;3.30;;
5085;SDS011;4715;51.660;7.082;2022-10-16T09:17:59;4.03;;;1.80;;
5085;SDS011;4715;51.660;7.082;2022-10-16T09:20:28;2.23;;;2.13;;
5085;SDS011;4715;51.660;7.082;2022-10-16T09:22:59;4.80;;;1.70;;
5085;SDS011;4715;51.660;7.082;2022-10-16T09:25:33;1.67;;;1.57;;
5085;SDS011;4715;51.660;7.082;2022-10-16T09:27:57;2.60;;;1.50;;
5085;SDS011;4715;51.660;7.082;2022-10-16T09:30:20;1.67;;;1.57;;
5085;SDS011;4715;51.660;7.082;2022-10-16T09:32:43;2.97;;;1.57;;
5085;SDS011;4715;51.660;7.082;2022-10-16T09:35:10;1.70;;;1.20;;
5085;SDS011;4715;51.660;7.082;2022-10-16T09:37:36;3.50;;;1.40;;
5085;SDS011;4715;51.660;7.082;2022-10-16T09:39:58;5.80;;;1.70;;
5085;SDS011;4715;51.660;7.082;2022-10-16T09:42:20;2.00;;;1.47;;
5085;SDS011;4715;51.660;7.082;2022-10-16T09:44:48;2.70;;;1.37;;
5085;SDS011;4715;51.660;7.082;2022-10-16T09:47:12;4.03;;;1.50;;
5085;SDS011;4715;51.660;7.082;2022-10-16T09:49:37;1.70;;;1.40;;
5085;SDS011;4715;51.660;7.082;2022-10-16T09:52:05;2.80;;;1.27;;
5085;SDS011;4715;51.660;7.082;2022-10-16T09:54:32;1.60;;;1.33;;
5085;SDS011;4715;51.660;7.082;2022-10-16T09:57:03;2.07;;;1.40;;
5085;SDS011;4715;51.660;7.082;2022-10-16T09:59:25;1.53;;;1.27;;
5085;SDS011;4715;51.660;7.082;2022-10-16T10:01:51;1.60;;;1.50;;
5085;SDS011;4715;51.660;7.082;2022-10-16T10:04:15;2.20;;;1.37;;
5085;SDS011;4715;51.660;7.082;2022-10-16T10:06:37;2.23;;;1.80;;
5085;SDS011;4715;51.660;7.082;2022-10-16T10:09:15;1.60;;;1.33;;
5085;SDS011;4715;51.660;7.082;2022-10-16T10:11:40;1.40;;;1.30;;
5085;SDS011;4715;51.660;7.082;2022-10-16T10:14:05;2.20;;;1.20;;
5085;SDS011;4715;51.660;7.082;2022-10-16T10:16:27;2.80;;;1.83;;
5085;SDS011;4715;51.660;7.082;2022-10-16T10:18:58;1.40;;;1.30;;
5085;SDS011;4715;51.660;7.082;2022-10-16T10:21:20;2.73;;;1.30;;
5085;SDS011;4715;51.660;7.082;2022-10-16T10:23:42;1.50;;;1.40;;
5085;SDS011;4715;51.660;7.082;2022-10-16T10:26:05;3.00;;;1.60;;
5085;SDS011;4715;51.660;7.082;2022-10-16T10:31:24;1.93;;;1.30;;
5085;SDS011;4715;51.660;7.082;2022-10-16T10:33:52;2.80;;;1.37;;
5085;SDS011;4715;51.660;7.082;2022-10-16T10:36:25;1.40;;;1.30;;
5085;SDS011;4715;51.660;7.082;2022-10-16T10:38:50;2.70;;;1.30;;
5085;SDS011;4715;51.660;7.082;2022-10-16T10:41:23;1.20;;;1.10;;
5085;SDS011;4715;51.660;7.082;2022-10-16T10:44:01;1.50;;;1.00;;
5085;SDS011;4715;51.660;7.082;2022-10-16T10:46:32;4.10;;;1.43;;
5085;SDS011;4715;51.660;7.082;2022-10-16T10:49:00;3.53;;;1.20;;
5085;SDS011;4715;51.660;7.082;2022-10-16T10:51:54;4.90;;;1.40;;
5085;SDS011;4715;51.660;7.082;2022-10-16T10:54:24;2.27;;;1.33;;
5085;SDS011;4715;51.660;7.082;2022-10-16T10:56:57;2.30;;;1.10;;
5085;SDS011;4715;51.660;7.082;2022-10-16T10:59:29;1.30;;;1.20;;
5085;SDS011;4715;51.660;7.082;2022-10-16T11:02:14;1.10;;;1.10;;
5085;SDS011;4715;51.660;7.082;2022-10-16T11:04:49;1.63;;;1.53;;
5085;SDS011;4715;51.660;7.082;2022-10-16T11:07:32;1.80;;;1.33;;
5085;SDS011;4715;51.660;7.082;2022-10-16T11:10:02;2.40;;;1.17;;
5085;SDS011;4715;51.660;7.082;2022-10-16T11:12:35;1.20;;;1.10;;
5085;SDS011;4715;51.660;7.082;2022-10-16T11:15:02;2.63;;;1.40;;
5085;SDS011;4715;51.660;7.082;2022-10-16T11:17:35;2.63;;;1.23;;
5085;SDS011;4715;51.660;7.082;2022-10-16T11:20:04;2.30;;;1.10;;
5085;SDS011;4715;51.660;7.082;2022-10-16T11:22:36;0.93;;;0.93;;
5085;SDS011;4715;51.660;7.082;2022-10-16T11:25:04;1.10;;;1.00;;
5085;SDS011;4715;51.660;7.082;2022-10-16T11:27:38;3.70;;;1.03;;
5085;SDS011;4715;51.660;7.082;2022-10-16T11:30:14;2.20;;;0.87;;
5085;SDS011;4715;51.660;7.082;2022-10-16T11:32:47;0.83;;;0.83;;
5085;SDS011;4715;51.660;7.082;2022-10-16T11:35:15;1.10;;;1.00;;
5085;SDS011;4715;51.660;7.082;2022-10-16T11:37:46;1.07;;;0.80;;
5085;SDS011;4715;51.660;7.082;2022-10-16T11:40:16;4.07;;;1.30;;
5085;SDS011;4715;51.660;7.082;2022-10-16T11:42:48;4.27;;;0.90;;
5085;SDS011;4715;51.660;7.082;2022-10-16T11:45:15;0.87;;;0.87;;
5085;SDS011;4715;51.660;7.082;2022-10-16T11:47:57;1.57;;;1.27;;
5085;SDS011;4715;51.660;7.082;2022-10-16T11:50:26;1.40;;;1.30;;
5085;SDS011;4715;51.660;7.082;2022-10-16T11:52:55;2.43;;;1.60;;
5085;SDS011;4715;51.660;7.082;2022-10-16T11:55:30;4.33;;;1.20;;
5085;SDS011;4715;51.660;7.082;2022-10-16T11:57:59;2.33;;;1.00;;
5085;SDS011;4715;51.660;7.082;2022-10-16T12:00:31;0.83;;;0.80;;
5085;SDS011;4715;51.660;7.082;2022-10-16T12:03:00;1.00;;;0.90;;
5085;SDS011;4715;51.660;7.082;2022-10-16T12:05:33;1.20;;;0.87;;
5085;SDS011;4715;51.660;7.082;2022-10-16T12:08:12;1.87;;;1.00;;
5085;SDS011;4715;51.660;7.082;2022-10-16T12:10:36;4.73;;;1.27;;
5085;SDS011;4715;51.660;7.082;2022-10-16T12:13:02;2.10;;;1.00;;
5085;SDS011;4715;51.660;7.082;2022-10-16T12:15:27;3.20;;;1.10;;
5085;SDS011;4715;51.660;7.082;2022-10-16T12:17:52;0.80;;;0.80;;
5085;SDS011;4715;51.660;7.082;2022-10-16T12:20:21;1.10;;;1.00;;
5085;SDS011;4715;51.660;7.082;2022-10-16T12:22:51;1.67;;;1.00;;
5085;SDS011;4715;51.660;7.082;2022-10-16T12:25:24;1.07;;;1.03;;
5085;SDS011;4715;51.660;7.082;2022-10-16T12:28:01;1.00;;;0.90;;
5085;SDS011;4715;51.660;7.082;2022-10-16T12:30:31;2.20;;;0.97;;
5085;SDS011;4715;51.660;7.082;2022-10-16T12:32:57;1.10;;;0.90;;
5085;SDS011;4715;51.660;7.082;2022-10-16T12:38:11;1.80;;;1.70;;
5085;SDS011;4715;51.660;7.082;2022-10-16T12:40:44;4.27;;;1.70;;
5085;SDS011;4715;51.660;7.082;2022-10-16T12:43:27;2.83;;;1.30;;
5085;SDS011;4715;51.660;7.082;2022-10-16T12:46:00;1.83;;;1.73;;
5085;SDS011;4715;51.660;7.082;2022-10-16T12:48:26;1.77;;;1.57;;
5085;SDS011;4715;51.660;7.082;2022-10-16T12:50:49;3.40;;;2.20;;
5085;SDS011;4715;51.660;7.082;2022-10-16T12:53:17;2.97;;;2.00;;
5085;SDS011;4715;51.660;7.082;2022-10-16T12:55:42;2.50;;;2.37;;
5085;SDS011;4715;51.660;7.082;2022-10-16T12:58:20;1.90;;;1.80;;
5085;SDS011;4715;51.660;7.082;2022-10-16T13:00:56;2.47;;;2.27;;
5085;SDS011;4715;51.660;7.082;2022-10-16T13:06:19;1.70;;;1.60;;
5085;SDS011;4715;51.660;7.082;2022-10-16T13:09:02;1.40;;;1.30;;
5085;SDS011;4715;51.660;7.082;2022-10-16T13:11:49;3.23;;;1.73;;
5085;SDS011;4715;51.660;7.082;2022-10-16T13:14:33;1.50;;;1.40;;
5085;SDS011;4715;51.660;7.082;2022-10-16T13:17:23;1.40;;;1.40;;
5085;SDS011;4715;51.660;7.082;2022-10-16T13:19:54;1.40;;;1.30;;
5085;SDS011;4715;51.660;7.082;2022-10-16T13:22:27;3.80;;;1.83;;
5085;SDS011;4715;51.660;7.082;2022-10-16T13:24:58;2.20;;;1.23;;
5085;SDS011;4715;51.660;7.082;2022-10-16T13:27:45;1.17;;;1.17;;
5085;SDS011;4715;51.660;7.082;2022-10-16T13:30:14;1.10;;;1.00;;
5085;SDS011;4715;51.660;7.082;2022-10-16T13:32:39;1.73;;;1.30;;
5085;SDS011;4715;51.660;7.082;2022-10-16T13:35:27;2.60;;;1.30;;
5085;SDS011;4715;51.660;7.082;2022-10-16T13:38:02;1.10;;;1.00;;
5085;SDS011;4715;51.660;7.082;2022-10-16T13:40:27;1.60;;;1.10;;
5085;SDS011;4715;51.660;7.082;2022-10-16T13:42:51;3.03;;;1.30;;
5085;SDS011;4715;51.660;7.082;2022-10-16T13:45:18;2.37;;;1.50;;
5085;SDS011;4715;51.660;7.082;2022-10-16T13:47:41;1.40;;;1.30;;
5085;SDS011;4715;51.660;7.082;2022-10-16T13:50:04;1.00;;;1.00;;
5085;SDS011;4715;51.660;7.082;2022-10-16T13:52:30;1.20;;;0.97;;
5085;SDS011;4715;51.660;7.082;2022-10-16T13:54:57;1.30;;;1.20;;
5085;SDS011;4715;51.660;7.082;2022-10-16T13:57:18;1.20;;;1.10;;
5085;SDS011;4715;51.660;7.082;2022-10-16T13:59:45;1.20;;;1.10;;
5085;SDS011;4715;51.660;7.082;2022-10-16T14:02:13;1.23;;;1.20;;
5085;SDS011;4715;51.660;7.082;2022-10-16T14:04:40;1.30;;;1.20;;
5085;SDS011;4715;51.660;7.082;2022-10-16T14:07:11;1.13;;;1.10;;
5085;SDS011;4715;51.660;7.082;2022-10-16T14:09:36;1.37;;;1.27;;
5085;SDS011;4715;51.660;7.082;2022-10-16T14:12:00;1.83;;;1.30;;
5085;SDS011;4715;51.660;7.082;2022-10-16T14:14:23;2.43;;;1.80;;
5085;SDS011;4715;51.660;7.082;2022-10-16T14:16:49;1.93;;;1.20;;
5085;SDS011;4715;51.660;7.082;2022-10-16T14:19:17;1.50;;;1.30;;
5085;SDS011;4715;51.660;7.082;2022-10-16T14:22:14;1.40;;;1.30;;
5085;SDS011;4715;51.660;7.082;2022-10-16T14:24:48;1.20;;;1.10;;
5085;SDS011;4715;51.660;7.082;2022-10-16T14:27:20;3.73;;;1.20;;
5085;SDS011;4715;51.660;7.082;2022-10-16T14:29:49;4.23;;;1.43;;
5085;SDS011;4715;51.660;7.082;2022-10-16T14:32:22;1.90;;;1.10;;
5085;SDS011;4715;51.660;7.082;2022-10-16T14:34:52;1.83;;;1.30;;
5085;SDS011;4715;51.660;7.082;2022-10-16T14:37:17;1.50;;;1.40;;
5085;SDS011;4715;51.660;7.082;2022-10-16T14:39:48;1.77;;;1.53;;
5085;SDS011;4715;51.660;7.082;2022-10-16T14:42:11;1.60;;;1.30;;
5085;SDS011;4715;51.660;7.082;2022-10-16T14:44:37;1.27;;;1.13;;
5085;SDS011;4715;51.660;7.082;2022-10-16T14:47:07;1.27;;;1.10;;
5085;SDS011;4715;51.660;7.082;2022-10-16T14:49:34;1.53;;;1.10;;
5085;SDS011;4715;51.660;7.082;2022-10-16T14:51:56;1.20;;;1.10;;
5085;SDS011;4715;51.660;7.082;2022-10-16T14:54:19;1.90;;;1.17;;
5085;SDS011;4715;51.660;7.082;2022-10-16T14:56:42;1.03;;;1.03;;
5085;SDS011;4715;51.660;7.082;2022-10-16T14:59:08;1.20;;;1.13;;
5085;SDS011;4715;51.660;7.082;2022-10-16T15:01:37;1.27;;;1.03;;
5085;SDS011;4715;51.660;7.082;2022-10-16T15:03:58;2.17;;;1.20;;
5085;SDS011;4715;51.660;7.082;2022-10-16T15:06:21;1.23;;;1.13;;
5085;SDS011;4715;51.660;7.082;2022-10-16T15:08:43;1.57;;;1.47;;
5085;SDS011;4715;51.660;7.082;2022-10-16T15:11:05;1.33;;;1.00;;
5085;SDS011;4715;51.660;7.082;2022-10-16T15:13:30;1.60;;;1.17;;
5085;SDS011;4715;51.660;7.082;2022-10-16T15:15:52;1.00;;;1.00;;